sensor_id;sensor_type;location;lat;lon;timestamp;temperature;humidity
84330;SHT31;74510;42.676;23.432;2024-03-23T00:53:02;1.66;75.42
84330;SHT31;74510;42.676;23.432;2024-03-23T00:55:28;1.66;75.02
84330;SHT31;74510;42.676;23.432;2024-03-23T00:57:53;1.66;75.05
84330;SHT31;74510;42.676;23.432;2024-03-23T01:00:19;1.54;75.27
84330;SHT31;74510;42.676;23.432;2024-03-23T01:02:44;1.61;74.85
84330;SHT31;74510;42.676;23.432;2024-03-23T01:05:09;1.60;74.82
84330;SHT31;74510;42.676;23.432;2024-03-23T01:07:35;1.59;74.63
84330;SHT31;74510;42.676;23.432;2024-03-23T01:10:00;1.44;75.30
84330;SHT31;74510;42.676;23.432;2024-03-23T01:12:26;1.46;75.49
84330;SHT31;74510;42.676;23.432;2024-03-23T01:14:51;1.40;75.81
84330;SHT31;74510;42.676;23.432;2024-03-23T01:17:16;1.63;74.99
84330;SHT31;74510;42.676;23.432;2024-03-23T01:19:42;1.50;75.26
84330;SHT31;74510;42.676;23.432;2024-03-23T01:22:07;1.50;75.25
84330;SHT31;74510;42.676;23.432;2024-03-23T01:24:35;1.42;75.85
84330;SHT31;74510;42.676;23.432;2024-03-23T01:27:00;1.32;76.51
84330;SHT31;74510;42.676;23.432;2024-03-23T01:29:26;1.25;77.22
84330;SHT31;74510;42.676;23.432;2024-03-23T01:31:51;1.23;77.53
84330;SHT31;74510;42.676;23.432;2024-03-23T01:34:17;1.23;77.67
84330;SHT31;74510;42.676;23.432;2024-03-23T01:36:42;1.26;77.63
84330;SHT31;74510;42.676;23.432;2024-03-23T01:39:08;1.26;77.79
84330;SHT31;74510;42.676;23.432;2024-03-23T01:41:35;1.26;77.98
84330;SHT31;74510;42.676;23.432;2024-03-23T01:44:05;1.25;78.29
84330;SHT31;74510;42.676;23.432;2024-03-23T01:46:32;1.25;78.51
84330;SHT31;74510;42.676;23.432;2024-03-23T01:48:57;1.18;78.20
84330;SHT31;74510;42.676;23.432;2024-03-23T01:51:23;1.15;78.17
84330;SHT31;74510;42.676;23.432;2024-03-23T01:53:49;1.15;78.37
84330;SHT31;74510;42.676;23.432;2024-03-23T01:56:15;1.09;78.79
84330;SHT31;74510;42.676;23.432;2024-03-23T01:58:40;1.12;78.79
84330;SHT31;74510;42.676;23.432;2024-03-23T02:01:06;1.11;78.78
84330;SHT31;74510;42.676;23.432;2024-03-23T02:03:31;1.19;78.12
84330;SHT31;74510;42.676;23.432;2024-03-23T02:05:57;1.19;78.44
84330;SHT31;74510;42.676;23.432;2024-03-23T02:08:23;1.18;78.00
84330;SHT31;74510;42.676;23.432;2024-03-23T02:10:49;1.18;78.00
84330;SHT31;74510;42.676;23.432;2024-03-23T02:13:18;1.25;77.73
84330;SHT31;74510;42.676;23.432;2024-03-23T02:15:44;1.23;77.15
84330;SHT31;74510;42.676;23.432;2024-03-23T02:18:10;1.25;76.93
84330;SHT31;74510;42.676;23.432;2024-03-23T02:20:36;1.22;77.17
84330;SHT31;74510;42.676;23.432;2024-03-23T02:23:02;1.09;77.81
84330;SHT31;74510;42.676;23.432;2024-03-23T02:25:27;1.16;77.45
84330;SHT31;74510;42.676;23.432;2024-03-23T02:27:53;1.12;77.55
84330;SHT31;74510;42.676;23.432;2024-03-23T02:30:20;1.06;78.31
84330;SHT31;74510;42.676;23.432;2024-03-23T02:32:46;1.05;78.26
84330;SHT31;74510;42.676;23.432;2024-03-23T02:35:11;1.12;77.83
84330;SHT31;74510;42.676;23.432;2024-03-23T02:37:37;1.09;78.35
84330;SHT31;74510;42.676;23.432;2024-03-23T02:40:02;1.06;77.94
84330;SHT31;74510;42.676;23.432;2024-03-23T02:42:28;1.05;78.08
84330;SHT31;74510;42.676;23.432;2024-03-23T02:44:54;0.99;78.42
84330;SHT31;74510;42.676;23.432;2024-03-23T02:47:19;0.98;78.25
84330;SHT31;74510;42.676;23.432;2024-03-23T02:49:44;0.95;78.22
84330;SHT31;74510;42.676;23.432;2024-03-23T02:52:10;0.92;78.37
84330;SHT31;74510;42.676;23.432;2024-03-23T02:54:35;0.78;78.46
84330;SHT31;74510;42.676;23.432;2024-03-23T02:57:01;0.77;78.06
84330;SHT31;74510;42.676;23.432;2024-03-23T02:59:26;0.63;79.02
84330;SHT31;74510;42.676;23.432;2024-03-23T03:01:52;0.61;79.15
84330;SHT31;74510;42.676;23.432;2024-03-23T03:04:17;0.49;79.50
84330;SHT31;74510;42.676;23.432;2024-03-23T03:06:46;0.43;79.91
84330;SHT31;74510;42.676;23.432;2024-03-23T03:09:12;0.37;80.07
84330;SHT31;74510;42.676;23.432;2024-03-23T03:11:37;0.33;80.29
84330;SHT31;74510;42.676;23.432;2024-03-23T03:14:03;0.39;80.57
84330;SHT31;74510;42.676;23.432;2024-03-23T03:16:28;0.43;80.29
84330;SHT31;74510;42.676;23.432;2024-03-23T03:18:54;0.47;80.19
84330;SHT31;74510;42.676;23.432;2024-03-23T03:21:19;0.46;80.06
84330;SHT31;74510;42.676;23.432;2024-03-23T03:23:45;0.47;80.00
84330;SHT31;74510;42.676;23.432;2024-03-23T03:26:10;0.43;79.80
84330;SHT31;74510;42.676;23.432;2024-03-23T03:28:36;0.35;80.29
84330;SHT31;74510;42.676;23.432;2024-03-23T03:31:01;0.44;80.21
84330;SHT31;74510;42.676;23.432;2024-03-23T03:33:27;0.64;79.35
84330;SHT31;74510;42.676;23.432;2024-03-23T03:35:53;0.58;79.47
84330;SHT31;74510;42.676;23.432;2024-03-23T03:38:19;0.57;79.72
84330;SHT31;74510;42.676;23.432;2024-03-23T03:40:45;0.39;79.87
84330;SHT31;74510;42.676;23.432;2024-03-23T03:43:10;0.25;80.47
84330;SHT31;74510;42.676;23.432;2024-03-23T03:45:36;0.19;80.80
84330;SHT31;74510;42.676;23.432;2024-03-23T03:48:01;0.15;80.79
84330;SHT31;74510;42.676;23.432;2024-03-23T03:50:27;0.19;80.82
84330;SHT31;74510;42.676;23.432;2024-03-23T03:52:52;0.15;81.18
84330;SHT31;74510;42.676;23.432;2024-03-23T03:55:17;0.12;81.41
84330;SHT31;74510;42.676;23.432;2024-03-23T03:57:43;0.25;80.91
84330;SHT31;74510;42.676;23.432;2024-03-23T04:00:09;0.17;81.15
84330;SHT31;74510;42.676;23.432;2024-03-23T04:02:38;0.10;81.59
84330;SHT31;74510;42.676;23.432;2024-03-23T04:05:04;-0.01;82.10
84330;SHT31;74510;42.676;23.432;2024-03-23T04:07:30;-0.01;82.21
84330;SHT31;74510;42.676;23.432;2024-03-23T04:09:55;-0.01;81.98
84330;SHT31;74510;42.676;23.432;2024-03-23T04:12:21;-0.08;81.99
84330;SHT31;74510;42.676;23.432;2024-03-23T04:14:46;-0.11;82.21
84330;SHT31;74510;42.676;23.432;2024-03-23T04:17:12;-0.05;82.12
84330;SHT31;74510;42.676;23.432;2024-03-23T04:19:37;-0.05;82.28
84330;SHT31;74510;42.676;23.432;2024-03-23T04:22:02;-0.05;82.19
84330;SHT31;74510;42.676;23.432;2024-03-23T04:24:29;-0.08;82.05
84330;SHT31;74510;42.676;23.432;2024-03-23T04:26:54;-0.04;81.99
84330;SHT31;74510;42.676;23.432;2024-03-23T04:29:20;-0.01;81.90
84330;SHT31;74510;42.676;23.432;2024-03-23T04:31:45;-0.02;81.86
84330;SHT31;74510;42.676;23.432;2024-03-23T04:34:11;-0.11;82.06
84330;SHT31;74510;42.676;23.432;2024-03-23T04:36:36;-0.08;82.26
84330;SHT31;74510;42.676;23.432;2024-03-23T04:39:02;-0.04;82.17
84330;SHT31;74510;42.676;23.432;2024-03-23T04:41:28;-0.05;82.13
84330;SHT31;74510;42.676;23.432;2024-03-23T04:43:53;-0.08;82.21
84330;SHT31;74510;42.676;23.432;2024-03-23T04:46:18;-0.04;82.08
84330;SHT31;74510;42.676;23.432;2024-03-23T04:48:46;0.01;81.72
84330;SHT31;74510;42.676;23.432;2024-03-23T04:51:11;0.05;81.56
84330;SHT31;74510;42.676;23.432;2024-03-23T04:53:46;0.12;81.06
84330;SHT31;74510;42.676;23.432;2024-03-23T04:56:13;0.13;80.70
84330;SHT31;74510;42.676;23.432;2024-03-23T04:58:38;0.16;80.81
84330;SHT31;74510;42.676;23.432;2024-03-23T05:01:04;0.29;80.08
84330;SHT31;74510;42.676;23.432;2024-03-23T05:03:29;0.33;79.43
84330;SHT31;74510;42.676;23.432;2024-03-23T05:05:55;0.33;80.37
84330;SHT31;74510;42.676;23.432;2024-03-23T05:08:20;0.46;79.63
84330;SHT31;74510;42.676;23.432;2024-03-23T05:10:45;0.56;78.82
84330;SHT31;74510;42.676;23.432;2024-03-23T05:13:11;0.63;78.89
84330;SHT31;74510;42.676;23.432;2024-03-23T05:15:37;0.78;78.40
84330;SHT31;74510;42.676;23.432;2024-03-23T05:18:04;0.92;77.61
84330;SHT31;74510;42.676;23.432;2024-03-23T05:20:30;1.08;77.14
84330;SHT31;74510;42.676;23.432;2024-03-23T05:22:56;1.23;76.60
84330;SHT31;74510;42.676;23.432;2024-03-23T05:25:21;1.21;76.85
84330;SHT31;74510;42.676;23.432;2024-03-23T05:27:47;1.25;76.46
84330;SHT31;74510;42.676;23.432;2024-03-23T05:30:13;1.32;76.09
84330;SHT31;74510;42.676;23.432;2024-03-23T05:32:39;1.33;75.82
84330;SHT31;74510;42.676;23.432;2024-03-23T05:35:06;1.42;75.43
84330;SHT31;74510;42.676;23.432;2024-03-23T05:37:32;1.53;75.16
84330;SHT31;74510;42.676;23.432;2024-03-23T05:39:59;1.59;75.22
84330;SHT31;74510;42.676;23.432;2024-03-23T05:42:25;1.60;76.15
84330;SHT31;74510;42.676;23.432;2024-03-23T05:44:50;1.71;75.08
84330;SHT31;74510;42.676;23.432;2024-03-23T05:47:15;1.82;75.08
84330;SHT31;74510;42.676;23.432;2024-03-23T05:49:42;1.93;75.35
84330;SHT31;74510;42.676;23.432;2024-03-23T05:52:11;2.04;74.96
84330;SHT31;74510;42.676;23.432;2024-03-23T05:54:36;2.24;74.64
84330;SHT31;74510;42.676;23.432;2024-03-23T05:57:02;2.36;74.25
84330;SHT31;74510;42.676;23.432;2024-03-23T05:59:28;2.49;73.93
84330;SHT31;74510;42.676;23.432;2024-03-23T06:01:54;2.59;73.68
84330;SHT31;74510;42.676;23.432;2024-03-23T06:04:19;2.73;73.19
84330;SHT31;74510;42.676;23.432;2024-03-23T06:06:46;2.84;72.57
84330;SHT31;74510;42.676;23.432;2024-03-23T06:09:11;3.01;72.32
84330;SHT31;74510;42.676;23.432;2024-03-23T06:11:37;3.04;72.43
84330;SHT31;74510;42.676;23.432;2024-03-23T06:14:02;3.11;72.34
84330;SHT31;74510;42.676;23.432;2024-03-23T06:16:28;3.25;71.75
84330;SHT31;74510;42.676;23.432;2024-03-23T06:18:54;3.49;70.80
84330;SHT31;74510;42.676;23.432;2024-03-23T06:21:20;3.49;70.68
84330;SHT31;74510;42.676;23.432;2024-03-23T06:23:46;3.51;71.49
84330;SHT31;74510;42.676;23.432;2024-03-23T06:26:22;3.67;71.08
84330;SHT31;74510;42.676;23.432;2024-03-23T06:28:48;3.82;71.05
84330;SHT31;74510;42.676;23.432;2024-03-23T06:31:13;3.91;70.27
84330;SHT31;74510;42.676;23.432;2024-03-23T06:33:39;4.22;67.33
84330;SHT31;74510;42.676;23.432;2024-03-23T06:36:05;4.34;67.25
84330;SHT31;74510;42.676;23.432;2024-03-23T06:38:31;4.41;67.92
84330;SHT31;74510;42.676;23.432;2024-03-23T06:40:57;4.45;68.19
84330;SHT31;74510;42.676;23.432;2024-03-23T06:43:23;4.61;67.64
84330;SHT31;74510;42.676;23.432;2024-03-23T06:45:55;4.80;67.00
84330;SHT31;74510;42.676;23.432;2024-03-23T06:48:20;5.04;66.80
84330;SHT31;74510;42.676;23.432;2024-03-23T06:50:46;5.26;66.41
84330;SHT31;74510;42.676;23.432;2024-03-23T06:53:12;5.34;66.27
84330;SHT31;74510;42.676;23.432;2024-03-23T06:55:38;5.69;64.64
84330;SHT31;74510;42.676;23.432;2024-03-23T06:58:04;5.78;64.12
84330;SHT31;74510;42.676;23.432;2024-03-23T07:00:29;5.69;63.90
84330;SHT31;74510;42.676;23.432;2024-03-23T07:02:55;5.78;64.46
84330;SHT31;74510;42.676;23.432;2024-03-23T07:05:20;5.88;63.62
84330;SHT31;74510;42.676;23.432;2024-03-23T07:07:46;5.79;64.51
84330;SHT31;74510;42.676;23.432;2024-03-23T07:10:11;6.07;64.31
84330;SHT31;74510;42.676;23.432;2024-03-23T07:12:37;6.11;63.37
84330;SHT31;74510;42.676;23.432;2024-03-23T07:15:02;6.40;59.82
84330;SHT31;74510;42.676;23.432;2024-03-23T07:17:28;6.47;60.39
84330;SHT31;74510;42.676;23.432;2024-03-23T07:19:54;6.33;61.44
84330;SHT31;74510;42.676;23.432;2024-03-23T07:22:19;6.49;60.82
84330;SHT31;74510;42.676;23.432;2024-03-23T07:24:44;6.65;60.61
84330;SHT31;74510;42.676;23.432;2024-03-23T07:27:10;6.64;61.03
84330;SHT31;74510;42.676;23.432;2024-03-23T07:29:36;6.71;60.88
84330;SHT31;74510;42.676;23.432;2024-03-23T07:32:01;6.99;59.82
84330;SHT31;74510;42.676;23.432;2024-03-23T07:34:27;7.02;59.52
84330;SHT31;74510;42.676;23.432;2024-03-23T07:36:52;7.12;60.13
84330;SHT31;74510;42.676;23.432;2024-03-23T07:39:18;7.28;60.19
84330;SHT31;74510;42.676;23.432;2024-03-23T07:41:46;7.65;58.00
84330;SHT31;74510;42.676;23.432;2024-03-23T07:44:12;7.85;56.88
84330;SHT31;74510;42.676;23.432;2024-03-23T07:46:37;7.93;56.39
84330;SHT31;74510;42.676;23.432;2024-03-23T07:49:04;8.02;56.57
84330;SHT31;74510;42.676;23.432;2024-03-23T07:51:29;7.61;57.58
84330;SHT31;74510;42.676;23.432;2024-03-23T07:53:55;7.51;58.95
84330;SHT31;74510;42.676;23.432;2024-03-23T07:56:20;7.77;58.05
84330;SHT31;74510;42.676;23.432;2024-03-23T07:58:47;7.79;59.61
84330;SHT31;74510;42.676;23.432;2024-03-23T08:01:16;7.99;58.33
84330;SHT31;74510;42.676;23.432;2024-03-23T08:03:45;8.14;56.50
84330;SHT31;74510;42.676;23.432;2024-03-23T08:08:41;8.51;56.82
84330;SHT31;74510;42.676;23.432;2024-03-23T08:11:07;8.33;56.85
84330;SHT31;74510;42.676;23.432;2024-03-23T08:13:33;8.49;57.10
84330;SHT31;74510;42.676;23.432;2024-03-23T08:16:00;8.72;56.67
84330;SHT31;74510;42.676;23.432;2024-03-23T08:18:26;8.51;55.09
84330;SHT31;74510;42.676;23.432;2024-03-23T08:21:02;8.47;55.36
84330;SHT31;74510;42.676;23.432;2024-03-23T08:23:28;8.56;56.35
84330;SHT31;74510;42.676;23.432;2024-03-23T08:25:58;8.89;55.10
84330;SHT31;74510;42.676;23.432;2024-03-23T08:28:24;8.80;54.94
84330;SHT31;74510;42.676;23.432;2024-03-23T08:30:49;8.99;55.69
84330;SHT31;74510;42.676;23.432;2024-03-23T08:33:15;9.44;53.11
84330;SHT31;74510;42.676;23.432;2024-03-23T08:35:41;9.49;53.07
84330;SHT31;74510;42.676;23.432;2024-03-23T08:38:06;9.50;52.61
84330;SHT31;74510;42.676;23.432;2024-03-23T08:40:32;9.57;52.63
84330;SHT31;74510;42.676;23.432;2024-03-23T08:42:57;9.93;52.09
84330;SHT31;74510;42.676;23.432;2024-03-23T08:45:24;10.32;51.12
84330;SHT31;74510;42.676;23.432;2024-03-23T08:47:49;10.43;50.02
84330;SHT31;74510;42.676;23.432;2024-03-23T08:50:15;10.25;50.51
84330;SHT31;74510;42.676;23.432;2024-03-23T08:52:40;10.18;50.85
84330;SHT31;74510;42.676;23.432;2024-03-23T08:55:06;10.41;51.09
84330;SHT31;74510;42.676;23.432;2024-03-23T08:57:32;10.55;51.06
84330;SHT31;74510;42.676;23.432;2024-03-23T08:59:57;10.90;49.17
84330;SHT31;74510;42.676;23.432;2024-03-23T09:02:23;11.22;47.73
84330;SHT31;74510;42.676;23.432;2024-03-23T09:04:48;11.31;47.32
84330;SHT31;74510;42.676;23.432;2024-03-23T09:07:14;11.61;46.72
84330;SHT31;74510;42.676;23.432;2024-03-23T09:09:39;11.45;47.39
84330;SHT31;74510;42.676;23.432;2024-03-23T09:12:05;11.36;47.10
84330;SHT31;74510;42.676;23.432;2024-03-23T09:14:33;11.24;46.20
84330;SHT31;74510;42.676;23.432;2024-03-23T09:16:58;11.15;47.06
84330;SHT31;74510;42.676;23.432;2024-03-23T09:19:26;11.15;48.49
84330;SHT31;74510;42.676;23.432;2024-03-23T09:21:51;11.25;46.87
84330;SHT31;74510;42.676;23.432;2024-03-23T09:24:17;11.32;48.05
84330;SHT31;74510;42.676;23.432;2024-03-23T09:26:42;11.48;47.97
84330;SHT31;74510;42.676;23.432;2024-03-23T09:29:08;11.59;47.33
84330;SHT31;74510;42.676;23.432;2024-03-23T09:31:33;11.54;47.42
84330;SHT31;74510;42.676;23.432;2024-03-23T09:33:58;11.86;47.60
84330;SHT31;74510;42.676;23.432;2024-03-23T09:36:24;11.93;47.15
84330;SHT31;74510;42.676;23.432;2024-03-23T09:38:49;12.52;46.24
84330;SHT31;74510;42.676;23.432;2024-03-23T09:41:15;12.99;45.27
84330;SHT31;74510;42.676;23.432;2024-03-23T09:43:40;12.81;45.66
84330;SHT31;74510;42.676;23.432;2024-03-23T09:46:07;12.66;46.30
84330;SHT31;74510;42.676;23.432;2024-03-23T09:48:33;12.81;46.86
84330;SHT31;74510;42.676;23.432;2024-03-23T09:50:58;12.69;45.51
84330;SHT31;74510;42.676;23.432;2024-03-23T09:53:24;13.14;44.84
84330;SHT31;74510;42.676;23.432;2024-03-23T09:55:49;13.72;43.34
84330;SHT31;74510;42.676;23.432;2024-03-23T09:58:17;14.15;42.13
84330;SHT31;74510;42.676;23.432;2024-03-23T10:00:43;14.39;42.19
84330;SHT31;74510;42.676;23.432;2024-03-23T10:03:08;14.51;42.18
84330;SHT31;74510;42.676;23.432;2024-03-23T10:05:36;14.25;41.57
84330;SHT31;74510;42.676;23.432;2024-03-23T10:10:40;13.61;42.43
84330;SHT31;74510;42.676;23.432;2024-03-23T10:13:06;13.78;41.87
84330;SHT31;74510;42.676;23.432;2024-03-23T10:15:34;13.55;42.64
84330;SHT31;74510;42.676;23.432;2024-03-23T10:18:17;13.54;42.67
84330;SHT31;74510;42.676;23.432;2024-03-23T10:20:43;13.70;42.89
84330;SHT31;74510;42.676;23.432;2024-03-23T10:23:16;13.72;41.75
84330;SHT31;74510;42.676;23.432;2024-03-23T10:25:41;14.20;40.88
84330;SHT31;74510;42.676;23.432;2024-03-23T10:28:07;14.20;40.95
84330;SHT31;74510;42.676;23.432;2024-03-23T10:30:32;14.37;39.55
84330;SHT31;74510;42.676;23.432;2024-03-23T10:33:10;14.29;39.71
84330;SHT31;74510;42.676;23.432;2024-03-23T10:35:39;14.29;39.81
84330;SHT31;74510;42.676;23.432;2024-03-23T10:38:05;14.68;39.95
84330;SHT31;74510;42.676;23.432;2024-03-23T10:40:34;14.88;39.84
84330;SHT31;74510;42.676;23.432;2024-03-23T10:43:00;15.02;38.78
84330;SHT31;74510;42.676;23.432;2024-03-23T10:45:26;15.24;36.96
84330;SHT31;74510;42.676;23.432;2024-03-23T10:47:51;15.46;33.65
84330;SHT31;74510;42.676;23.432;2024-03-23T10:50:17;15.28;31.76
84330;SHT31;74510;42.676;23.432;2024-03-23T10:52:46;14.88;31.32
84330;SHT31;74510;42.676;23.432;2024-03-23T10:55:11;15.04;34.92
84330;SHT31;74510;42.676;23.432;2024-03-23T10:57:44;15.29;33.99
84330;SHT31;74510;42.676;23.432;2024-03-23T11:00:11;15.60;34.83
84330;SHT31;74510;42.676;23.432;2024-03-23T11:02:37;15.74;35.81
84330;SHT31;74510;42.676;23.432;2024-03-23T11:07:51;15.93;35.80
84330;SHT31;74510;42.676;23.432;2024-03-23T11:10:27;16.52;34.42
84330;SHT31;74510;42.676;23.432;2024-03-23T11:12:55;16.72;33.91
84330;SHT31;74510;42.676;23.432;2024-03-23T11:15:20;16.68;34.09
84330;SHT31;74510;42.676;23.432;2024-03-23T11:18:05;15.86;34.14
84330;SHT31;74510;42.676;23.432;2024-03-23T11:20:34;16.04;35.77
84330;SHT31;74510;42.676;23.432;2024-03-23T11:23:00;16.40;32.84
84330;SHT31;74510;42.676;23.432;2024-03-23T11:25:26;16.72;31.63
84330;SHT31;74510;42.676;23.432;2024-03-23T11:27:53;17.49;31.63
84330;SHT31;74510;42.676;23.432;2024-03-23T11:30:20;17.41;32.04
84330;SHT31;74510;42.676;23.432;2024-03-23T11:32:48;16.79;33.89
84330;SHT31;74510;42.676;23.432;2024-03-23T11:35:32;16.45;32.29
84330;SHT31;74510;42.676;23.432;2024-03-23T11:38:17;16.31;31.79
84330;SHT31;74510;42.676;23.432;2024-03-23T11:40:48;16.35;32.24
84330;SHT31;74510;42.676;23.432;2024-03-23T11:43:18;16.29;31.45
84330;SHT31;74510;42.676;23.432;2024-03-23T11:45:49;16.44;30.82
84330;SHT31;74510;42.676;23.432;2024-03-23T11:48:19;16.36;32.93
84330;SHT31;74510;42.676;23.432;2024-03-23T11:50:53;16.52;33.13
84330;SHT31;74510;42.676;23.432;2024-03-23T11:53:21;16.59;33.48
84330;SHT31;74510;42.676;23.432;2024-03-23T11:55:59;16.38;32.45
84330;SHT31;74510;42.676;23.432;2024-03-23T11:58:26;16.28;32.35
84330;SHT31;74510;42.676;23.432;2024-03-23T12:03:17;16.53;32.53
84330;SHT31;74510;42.676;23.432;2024-03-23T12:05:48;16.18;32.44
84330;SHT31;74510;42.676;23.432;2024-03-23T12:08:25;16.44;33.28
84330;SHT31;74510;42.676;23.432;2024-03-23T12:11:12;16.53;32.40
84330;SHT31;74510;42.676;23.432;2024-03-23T12:13:39;16.31;32.97
84330;SHT31;74510;42.676;23.432;2024-03-23T12:16:17;16.20;32.52
84330;SHT31;74510;42.676;23.432;2024-03-23T12:18:43;16.03;32.01
84330;SHT31;74510;42.676;23.432;2024-03-23T12:21:09;16.34;32.75
84330;SHT31;74510;42.676;23.432;2024-03-23T12:23:35;16.58;33.17
84330;SHT31;74510;42.676;23.432;2024-03-23T12:26:01;17.03;31.60
84330;SHT31;74510;42.676;23.432;2024-03-23T12:28:27;17.30;31.70
84330;SHT31;74510;42.676;23.432;2024-03-23T12:30:52;17.37;31.42
84330;SHT31;74510;42.676;23.432;2024-03-23T12:33:19;17.26;32.47
84330;SHT31;74510;42.676;23.432;2024-03-23T12:35:45;17.18;31.90
84330;SHT31;74510;42.676;23.432;2024-03-23T12:38:10;16.84;31.69
84330;SHT31;74510;42.676;23.432;2024-03-23T12:40:35;16.70;32.93
84330;SHT31;74510;42.676;23.432;2024-03-23T12:43:01;16.68;33.11
84330;SHT31;74510;42.676;23.432;2024-03-23T12:45:26;16.66;33.24
84330;SHT31;74510;42.676;23.432;2024-03-23T12:47:52;16.69;32.46
84330;SHT31;74510;42.676;23.432;2024-03-23T12:50:21;16.76;32.80
84330;SHT31;74510;42.676;23.432;2024-03-23T12:52:47;16.77;32.87
84330;SHT31;74510;42.676;23.432;2024-03-23T12:55:13;16.91;33.81
84330;SHT31;74510;42.676;23.432;2024-03-23T12:57:38;17.13;32.47
84330;SHT31;74510;42.676;23.432;2024-03-23T13:00:04;17.27;32.80
84330;SHT31;74510;42.676;23.432;2024-03-23T13:02:30;17.59;31.45
84330;SHT31;74510;42.676;23.432;2024-03-23T13:04:56;17.66;31.38
84330;SHT31;74510;42.676;23.432;2024-03-23T13:07:22;17.75;32.05
84330;SHT31;74510;42.676;23.432;2024-03-23T13:09:51;17.65;31.38
84330;SHT31;74510;42.676;23.432;2024-03-23T13:12:18;17.86;31.09
84330;SHT31;74510;42.676;23.432;2024-03-23T13:14:46;17.89;32.47
84330;SHT31;74510;42.676;23.432;2024-03-23T13:17:12;17.99;30.94
84330;SHT31;74510;42.676;23.432;2024-03-23T13:19:38;18.17;29.31
84330;SHT31;74510;42.676;23.432;2024-03-23T13:22:04;18.09;29.45
84330;SHT31;74510;42.676;23.432;2024-03-23T13:24:29;18.00;29.44
84330;SHT31;74510;42.676;23.432;2024-03-23T13:26:56;17.86;28.29
84330;SHT31;74510;42.676;23.432;2024-03-23T13:29:22;17.65;28.68
84330;SHT31;74510;42.676;23.432;2024-03-23T13:31:48;17.54;29.37
84330;SHT31;74510;42.676;23.432;2024-03-23T13:34:14;17.52;29.68
84330;SHT31;74510;42.676;23.432;2024-03-23T13:36:43;17.45;29.85
84330;SHT31;74510;42.676;23.432;2024-03-23T13:39:09;17.41;31.10
84330;SHT31;74510;42.676;23.432;2024-03-23T13:44:45;17.47;29.07
84330;SHT31;74510;42.676;23.432;2024-03-23T13:47:10;17.52;29.38
84330;SHT31;74510;42.676;23.432;2024-03-23T13:49:36;17.48;29.23
84330;SHT31;74510;42.676;23.432;2024-03-23T13:52:01;17.35;30.05
84330;SHT31;74510;42.676;23.432;2024-03-23T13:54:27;17.28;29.20
84330;SHT31;74510;42.676;23.432;2024-03-23T13:56:54;17.37;28.18
84330;SHT31;74510;42.676;23.432;2024-03-23T13:59:20;17.61;28.34
84330;SHT31;74510;42.676;23.432;2024-03-23T14:01:46;17.58;27.48
84330;SHT31;74510;42.676;23.432;2024-03-23T14:04:12;17.93;27.35
84330;SHT31;74510;42.676;23.432;2024-03-23T14:06:38;18.05;27.70
84330;SHT31;74510;42.676;23.432;2024-03-23T14:09:04;18.54;26.54
84330;SHT31;74510;42.676;23.432;2024-03-23T14:11:30;19.47;24.99
84330;SHT31;74510;42.676;23.432;2024-03-23T14:13:56;20.01;25.57
84330;SHT31;74510;42.676;23.432;2024-03-23T14:16:21;19.98;25.36
84330;SHT31;74510;42.676;23.432;2024-03-23T14:18:47;20.12;25.24
84330;SHT31;74510;42.676;23.432;2024-03-23T14:21:12;20.26;25.13
84330;SHT31;74510;42.676;23.432;2024-03-23T14:23:38;20.40;25.12
84330;SHT31;74510;42.676;23.432;2024-03-23T14:26:06;20.60;24.23
84330;SHT31;74510;42.676;23.432;2024-03-23T14:28:31;20.95;24.82
84330;SHT31;74510;42.676;23.432;2024-03-23T14:30:57;20.79;23.91
84330;SHT31;74510;42.676;23.432;2024-03-23T14:33:23;20.66;24.02
84330;SHT31;74510;42.676;23.432;2024-03-23T14:35:56;20.57;24.29
84330;SHT31;74510;42.676;23.432;2024-03-23T14:38:25;19.92;24.41
84330;SHT31;74510;42.676;23.432;2024-03-23T14:40:50;19.20;25.12
84330;SHT31;74510;42.676;23.432;2024-03-23T14:43:18;19.22;25.70
84330;SHT31;74510;42.676;23.432;2024-03-23T14:46:19;18.74;25.44
84330;SHT31;74510;42.676;23.432;2024-03-23T14:48:45;18.82;24.78
84330;SHT31;74510;42.676;23.432;2024-03-23T14:51:11;18.74;24.60
84330;SHT31;74510;42.676;23.432;2024-03-23T14:53:38;18.89;24.72
84330;SHT31;74510;42.676;23.432;2024-03-23T14:56:06;18.54;24.36
84330;SHT31;74510;42.676;23.432;2024-03-23T14:58:31;18.43;24.57
84330;SHT31;74510;42.676;23.432;2024-03-23T15:01:04;18.36;24.71
84330;SHT31;74510;42.676;23.432;2024-03-23T15:03:30;18.47;24.77
84330;SHT31;74510;42.676;23.432;2024-03-23T15:05:59;19.01;24.38
84330;SHT31;74510;42.676;23.432;2024-03-23T15:08:27;19.22;23.50
84330;SHT31;74510;42.676;23.432;2024-03-23T15:10:53;19.39;23.65
84330;SHT31;74510;42.676;23.432;2024-03-23T15:13:18;19.66;23.30
84330;SHT31;74510;42.676;23.432;2024-03-23T15:15:44;19.81;23.17
84330;SHT31;74510;42.676;23.432;2024-03-23T15:18:13;19.99;24.77
84330;SHT31;74510;42.676;23.432;2024-03-23T15:20:40;20.02;23.37
84330;SHT31;74510;42.676;23.432;2024-03-23T15:23:06;20.26;23.00
84330;SHT31;74510;42.676;23.432;2024-03-23T15:25:31;20.49;23.49
84330;SHT31;74510;42.676;23.432;2024-03-23T15:27:57;20.90;23.39
84330;SHT31;74510;42.676;23.432;2024-03-23T15:30:24;21.35;21.70
84330;SHT31;74510;42.676;23.432;2024-03-23T15:32:50;21.55;21.78
84330;SHT31;74510;42.676;23.432;2024-03-23T15:35:15;21.75;21.09
84330;SHT31;74510;42.676;23.432;2024-03-23T15:37:40;21.90;20.69
84330;SHT31;74510;42.676;23.432;2024-03-23T15:40:07;22.24;20.75
84330;SHT31;74510;42.676;23.432;2024-03-23T15:42:32;22.17;21.01
84330;SHT31;74510;42.676;23.432;2024-03-23T15:44:58;21.73;22.22
84330;SHT31;74510;42.676;23.432;2024-03-23T15:47:23;21.56;22.63
84330;SHT31;74510;42.676;23.432;2024-03-23T15:49:49;21.56;23.84
84330;SHT31;74510;42.676;23.432;2024-03-23T15:52:15;21.24;23.79
84330;SHT31;74510;42.676;23.432;2024-03-23T15:54:40;20.63;24.43
84330;SHT31;74510;42.676;23.432;2024-03-23T15:57:06;20.66;23.78
84330;SHT31;74510;42.676;23.432;2024-03-23T15:59:32;20.94;23.14
84330;SHT31;74510;42.676;23.432;2024-03-23T16:01:57;20.60;23.36
84330;SHT31;74510;42.676;23.432;2024-03-23T16:04:23;20.32;23.10
84330;SHT31;74510;42.676;23.432;2024-03-23T16:06:48;19.92;23.73
84330;SHT31;74510;42.676;23.432;2024-03-23T16:09:14;19.70;24.18
84330;SHT31;74510;42.676;23.432;2024-03-23T16:11:39;19.30;25.72
84330;SHT31;74510;42.676;23.432;2024-03-23T16:14:05;18.71;27.33
84330;SHT31;74510;42.676;23.432;2024-03-23T16:16:31;18.26;29.10
84330;SHT31;74510;42.676;23.432;2024-03-23T16:18:56;17.71;31.26
84330;SHT31;74510;42.676;23.432;2024-03-23T16:21:21;17.37;32.46
84330;SHT31;74510;42.676;23.432;2024-03-23T16:23:47;16.97;33.15